createdAt,value
2018-12-10T00:01:20.137Z,1.70
2018-12-10T00:03:48.837Z,2.00
2018-12-10T00:06:17.288Z,1.70
2018-12-10T00:08:46.081Z,1.50
2018-12-10T00:11:15.069Z,1.43
2018-12-10T00:13:44.118Z,2.07
2018-12-10T00:16:13.999Z,2.00
2018-12-10T00:18:42.487Z,1.50
2018-12-10T00:21:11.232Z,2.23
2018-12-10T00:23:39.735Z,1.80
2018-12-10T00:26:08.289Z,1.70
2018-12-10T00:28:37.882Z,1.90
2018-12-10T00:31:07.523Z,1.77
2018-12-10T00:33:37.054Z,1.50
2018-12-10T00:36:05.496Z,1.80
2018-12-10T00:38:33.940Z,1.57
2018-12-10T00:41:02.929Z,1.80
2018-12-10T00:43:31.469Z,1.40
2018-12-10T00:46:00.372Z,1.57
2018-12-10T00:48:28.880Z,1.53
2018-12-10T00:50:57.300Z,1.70
2018-12-10T00:53:25.901Z,1.43
2018-12-10T00:55:54.393Z,1.60
2018-12-10T00:58:22.940Z,1.50
2018-12-10T01:00:51.446Z,1.40
2018-12-10T01:03:20.090Z,1.50
2018-12-10T01:05:48.723Z,1.70
2018-12-10T01:08:17.173Z,1.77
2018-12-10T01:10:45.678Z,1.90
2018-12-10T01:13:14.103Z,1.53
2018-12-10T01:15:42.586Z,1.70
2018-12-10T01:18:11.220Z,2.23
2018-12-10T01:20:40.298Z,1.70
2018-12-10T01:23:09.283Z,1.90
2018-12-10T01:25:37.714Z,1.90
2018-12-10T01:28:06.166Z,1.80
2018-12-10T01:30:34.850Z,2.00
2018-12-10T01:33:03.458Z,1.73
2018-12-10T01:35:32.698Z,1.80
2018-12-10T01:38:01.156Z,1.73
2018-12-10T01:40:29.586Z,2.00
2018-12-10T01:42:58.026Z,2.30
2018-12-10T01:45:26.556Z,1.93
2018-12-10T01:47:55.120Z,1.97
2018-12-10T01:50:25.083Z,1.93
2018-12-10T01:52:53.644Z,2.13
2018-12-10T01:55:22.688Z,2.03
2018-12-10T01:57:51.238Z,2.20
2018-12-10T02:00:20.016Z,1.90
2018-12-10T02:02:48.651Z,2.40
2018-12-10T02:05:17.146Z,1.73
2018-12-10T02:07:45.602Z,1.93
2018-12-10T02:10:14.056Z,2.00
2018-12-10T02:12:42.478Z,2.27
2018-12-10T02:15:11.044Z,2.00
2018-12-10T02:17:39.724Z,2.03
2018-12-10T02:20:08.208Z,1.90
2018-12-10T02:22:36.880Z,1.80
2018-12-10T02:25:05.454Z,2.00
2018-12-10T02:27:34.172Z,2.00
2018-12-10T02:30:02.633Z,1.87
2018-12-10T02:32:31.365Z,1.90
2018-12-10T02:34:59.802Z,1.90
2018-12-10T02:37:28.260Z,1.80
2018-12-10T02:39:56.726Z,1.70
2018-12-10T02:42:25.652Z,1.80
2018-12-10T02:44:54.121Z,1.87
2018-12-10T02:47:22.741Z,1.50
2018-12-10T02:49:51.180Z,1.63
2018-12-10T02:52:19.621Z,1.73
2018-12-10T02:54:48.051Z,1.67
2018-12-10T02:57:16.518Z,2.13
2018-12-10T02:59:44.959Z,1.63
2018-12-10T03:02:13.518Z,1.73
2018-12-10T03:04:42.221Z,1.50
2018-12-10T03:07:10.890Z,1.80
2018-12-10T03:09:39.308Z,1.80
2018-12-10T03:12:07.739Z,1.50
2018-12-10T03:14:36.159Z,1.60
2018-12-10T03:17:04.607Z,1.37
2018-12-10T03:19:33.301Z,1.70
2018-12-10T03:22:01.740Z,2.00
2018-12-10T03:24:31.062Z,1.57
2018-12-10T03:26:59.605Z,1.67
2018-12-10T03:29:28.048Z,1.60
2018-12-10T03:31:56.699Z,1.80
2018-12-10T03:34:25.149Z,1.50
2018-12-10T03:36:53.551Z,1.80
2018-12-10T03:39:22.124Z,1.60
2018-12-10T03:41:50.782Z,1.87
2018-12-10T03:44:19.267Z,1.73
2018-12-10T03:46:47.660Z,1.80
2018-12-10T03:49:16.122Z,1.50
2018-12-10T03:51:44.695Z,1.63
2018-12-10T03:54:13.410Z,1.80
2018-12-10T03:56:42.018Z,1.80
2018-12-10T03:59:11.166Z,1.80
2018-12-10T04:01:39.735Z,1.90
2018-12-10T04:04:08.295Z,1.53
2018-12-10T04:06:36.741Z,1.70
2018-12-10T04:09:07.134Z,1.73
2018-12-10T04:11:35.886Z,1.80
2018-12-10T04:14:04.316Z,1.70
2018-12-10T04:16:32.894Z,2.00
2018-12-10T04:19:01.457Z,1.37
2018-12-10T04:21:30.028Z,2.10
2018-12-10T04:23:58.752Z,1.70
2018-12-10T04:26:27.221Z,1.90
2018-12-10T04:28:55.679Z,1.90
2018-12-10T04:31:24.161Z,2.17
2018-12-10T04:33:52.632Z,1.70
2018-12-10T04:36:21.050Z,1.67
2018-12-10T04:38:50.162Z,1.80
2018-12-10T04:41:18.729Z,1.90
2018-12-10T04:43:47.571Z,1.43
2018-12-10T04:46:15.999Z,1.93
2018-12-10T04:48:44.457Z,1.47
2018-12-10T04:51:12.893Z,1.77
2018-12-10T04:53:41.322Z,1.70
2018-12-10T04:56:09.740Z,1.70
2018-12-10T04:58:38.196Z,1.80
2018-12-10T05:01:06.711Z,1.43
2018-12-10T05:03:35.126Z,2.20
2018-12-10T05:06:03.550Z,1.83
2018-12-10T05:08:32.022Z,1.67
2018-12-10T05:11:00.456Z,1.90
2018-12-10T05:13:28.918Z,1.60
2018-12-10T05:15:57.374Z,1.70
2018-12-10T05:18:25.806Z,1.80
2018-12-10T05:20:54.222Z,1.80
2018-12-10T05:23:22.978Z,1.83
2018-12-10T05:25:51.854Z,1.60
2018-12-10T05:28:20.334Z,2.00
2018-12-10T05:30:48.781Z,1.80
2018-12-10T05:33:17.286Z,1.80
2018-12-10T05:35:45.737Z,2.07
2018-12-10T05:38:14.165Z,1.90
2018-12-10T05:40:42.584Z,2.00
2018-12-10T05:43:10.981Z,2.03
2018-12-10T05:45:39.495Z,1.70
2018-12-10T05:48:07.957Z,1.70
2018-12-10T05:50:36.413Z,1.60
2018-12-10T05:53:05.101Z,1.90
2018-12-10T05:55:33.577Z,1.90
2018-12-10T05:58:02.009Z,1.60
2018-12-10T06:00:30.585Z,1.80
2018-12-10T06:02:59.098Z,1.93
2018-12-10T06:05:27.595Z,2.00
2018-12-10T06:07:56.338Z,1.93
2018-12-10T06:10:24.797Z,1.93
2018-12-10T06:12:53.257Z,1.80
2018-12-10T06:15:21.727Z,1.60
2018-12-10T06:17:50.201Z,1.63
2018-12-10T06:20:18.629Z,1.70
2018-12-10T06:22:47.260Z,1.80
2018-12-10T06:25:16.119Z,1.80
2018-12-10T06:27:44.559Z,1.97
2018-12-10T06:30:15.395Z,2.00
2018-12-10T06:32:44.461Z,1.43
2018-12-10T06:35:13.125Z,1.70
2018-12-10T06:37:41.810Z,1.97
2018-12-10T06:40:10.298Z,1.97
2018-12-10T06:42:38.846Z,1.80
2018-12-10T06:45:07.451Z,1.80
2018-12-10T06:47:36.078Z,2.07
2018-12-10T06:50:05.193Z,1.73
2018-12-10T06:52:33.671Z,2.27
2018-12-10T06:55:02.340Z,1.70
2018-12-10T06:57:31.401Z,1.77
2018-12-10T07:00:00.153Z,1.87
2018-12-10T07:02:29.077Z,1.70
2018-12-10T07:04:57.556Z,2.07
2018-12-10T07:07:26.027Z,2.30
2018-12-10T07:09:55.157Z,1.73
2018-12-10T07:12:23.720Z,1.77
2018-12-10T07:14:52.940Z,1.80
2018-12-10T07:17:21.618Z,1.70
2018-12-10T07:19:51.663Z,1.80
2018-12-10T07:22:20.123Z,2.00
2018-12-10T07:24:48.528Z,1.53
2018-12-10T07:27:17.171Z,1.90
2018-12-10T07:29:45.762Z,2.10
2018-12-10T07:32:14.222Z,1.70
2018-12-10T07:34:42.634Z,1.80
2018-12-10T07:37:11.085Z,1.83
2018-12-10T07:39:39.653Z,1.60
2018-12-10T07:42:08.123Z,1.70
2018-12-10T07:44:36.552Z,1.87
2018-12-10T07:47:05.058Z,1.80
2018-12-10T07:49:33.773Z,1.80
2018-12-10T07:52:03.953Z,1.80
2018-12-10T07:57:23.260Z,2.00
2018-12-10T07:59:51.933Z,1.70
2018-12-10T08:02:20.850Z,1.80
2018-12-10T08:04:49.413Z,2.17
2018-12-10T08:07:17.898Z,2.13
2018-12-10T08:09:46.350Z,1.87
2018-12-10T08:12:14.869Z,2.20
2018-12-10T08:14:44.007Z,2.00
2018-12-10T08:17:12.657Z,2.20
2018-12-10T08:19:41.731Z,2.10
2018-12-10T08:22:10.352Z,1.90
2018-12-10T08:24:38.935Z,2.10
2018-12-10T08:27:09.631Z,2.30
2018-12-10T08:29:38.501Z,2.00
2018-12-10T08:33:37.351Z,1.70
2018-12-10T08:36:05.823Z,1.70
2018-12-10T08:38:34.854Z,1.80
2018-12-10T08:41:03.414Z,1.70
2018-12-10T08:43:31.836Z,1.90
2018-12-10T08:46:00.337Z,1.87
2018-12-10T08:48:28.798Z,1.90
2018-12-10T08:50:57.353Z,1.87
2018-12-10T08:53:26.088Z,1.70
2018-12-10T08:55:54.776Z,1.60
2018-12-10T08:58:23.218Z,1.70
2018-12-10T09:00:51.877Z,1.67
2018-12-10T09:03:20.284Z,1.80
2018-12-10T09:05:48.749Z,1.90
2018-12-10T09:08:17.379Z,1.83
2018-12-10T09:10:45.889Z,1.90
2018-12-10T09:13:14.487Z,1.70
2018-12-10T09:15:43.379Z,2.23
2018-12-10T09:18:12.115Z,1.60
2018-12-10T09:20:40.936Z,1.90
2018-12-10T09:23:10.596Z,1.70
2018-12-10T09:25:40.389Z,1.97
2018-12-10T09:28:09.993Z,2.07
2018-12-10T09:30:38.444Z,1.90
2018-12-10T09:33:06.922Z,2.00
2018-12-10T09:35:36.507Z,1.70
2018-12-10T09:38:04.935Z,1.60
2018-12-10T09:40:33.390Z,1.50
2018-12-10T09:43:02.554Z,1.80
2018-12-10T09:45:31.255Z,1.70
2018-12-10T09:47:59.736Z,1.50
2018-12-10T09:50:29.357Z,1.80
2018-12-10T09:52:57.829Z,1.60
2018-12-10T09:55:26.595Z,1.50
2018-12-10T09:57:56.676Z,1.40
2018-12-10T10:00:25.584Z,1.30
2018-12-10T10:02:55.087Z,1.50
2018-12-10T10:05:24.056Z,1.40
2018-12-10T10:07:52.518Z,1.80
2018-12-10T10:11:50.261Z,1.40
2018-12-10T10:14:19.187Z,1.53
2018-12-10T10:16:48.452Z,1.53
2018-12-10T10:19:17.239Z,1.40
2018-12-10T10:21:46.006Z,2.17
2018-12-10T10:24:15.157Z,1.73
2018-12-10T10:26:43.602Z,1.40
2018-12-10T10:29:12.017Z,1.30
2018-12-10T10:31:40.653Z,1.80
2018-12-10T10:34:09.223Z,1.77
2018-12-10T10:36:37.668Z,1.67
2018-12-10T10:39:07.539Z,1.40
2018-12-10T10:41:35.979Z,1.50
2018-12-10T10:44:04.556Z,1.53
2018-12-10T10:46:33.405Z,1.77
2018-12-10T10:49:02.017Z,1.40
2018-12-10T10:51:30.649Z,1.33
2018-12-10T10:53:59.397Z,1.63
2018-12-10T10:56:28.262Z,1.30
2018-12-10T10:58:56.835Z,1.47
2018-12-10T11:01:30.677Z,1.67
2018-12-10T11:03:59.413Z,1.80
2018-12-10T11:06:27.986Z,1.50
2018-12-10T11:08:56.469Z,1.43
2018-12-10T11:11:24.915Z,1.77
2018-12-10T11:13:53.653Z,1.60
2018-12-10T11:16:22.231Z,1.50
2018-12-10T11:18:50.767Z,1.70
2018-12-10T11:21:19.411Z,1.90
2018-12-10T11:23:47.975Z,1.70
2018-12-10T11:26:16.650Z,1.60
2018-12-10T11:28:46.163Z,1.77
2018-12-10T11:31:17.246Z,1.73
2018-12-10T11:33:47.384Z,1.60
2018-12-10T11:36:15.842Z,1.60
2018-12-10T11:38:45.506Z,1.57
2018-12-10T11:41:13.967Z,1.70
2018-12-10T11:43:42.657Z,1.80
2018-12-10T11:46:11.207Z,2.70
2018-12-10T11:48:39.735Z,1.60
2018-12-10T11:51:08.179Z,1.80
2018-12-10T11:53:36.672Z,1.60
2018-12-10T11:56:05.150Z,2.27
2018-12-10T11:58:33.567Z,2.00
2018-12-10T12:01:02.033Z,1.60
2018-12-10T12:03:30.608Z,1.77
2018-12-10T12:05:59.091Z,1.73
2018-12-10T12:08:27.894Z,1.57
2018-12-10T12:10:56.359Z,1.67
2018-12-10T12:13:24.816Z,1.67
2018-12-10T12:15:53.764Z,1.80
2018-12-10T12:18:22.182Z,1.90
2018-12-10T12:20:50.686Z,1.80
2018-12-10T12:23:19.194Z,1.83
2018-12-10T12:25:47.674Z,2.07
2018-12-10T12:28:16.122Z,2.00
2018-12-10T12:30:44.715Z,1.60
2018-12-10T12:33:13.198Z,1.90
2018-12-10T12:35:42.114Z,1.70
2018-12-10T12:38:10.580Z,1.70
2018-12-10T12:40:40.066Z,1.80
2018-12-10T12:43:15.830Z,1.87
2018-12-10T12:45:39.018Z,1.80
2018-12-10T12:48:07.470Z,1.77
2018-12-10T12:50:35.947Z,1.60
2018-12-10T12:53:04.630Z,1.73
2018-12-10T12:55:33.591Z,1.60
2018-12-10T12:58:02.020Z,1.50
2018-12-10T13:00:30.494Z,1.63
2018-12-10T13:02:58.976Z,1.77
2018-12-10T13:05:27.661Z,1.80
2018-12-10T13:07:56.123Z,1.47
2018-12-10T13:10:24.587Z,1.50
2018-12-10T13:12:53.058Z,1.60
2018-12-10T13:15:23.561Z,1.40
2018-12-10T13:17:52.013Z,1.50
2018-12-10T13:20:20.497Z,1.50
2018-12-10T13:22:49.217Z,1.67
2018-12-10T13:25:17.665Z,1.37
2018-12-10T13:27:46.119Z,1.60
2018-12-10T13:30:14.887Z,1.37
2018-12-10T13:32:43.297Z,1.50
2018-12-10T13:35:11.838Z,1.80
2018-12-10T13:37:45.599Z,1.47
2018-12-10T13:40:11.560Z,1.50
2018-12-10T13:42:40.158Z,1.40
2018-12-10T13:45:08.796Z,1.33
2018-12-10T13:47:37.301Z,1.70
2018-12-10T13:50:06.322Z,1.47
2018-12-10T13:52:35.619Z,1.20
2018-12-10T13:55:04.239Z,1.50
2018-12-10T13:57:32.893Z,1.63
2018-12-10T14:00:01.328Z,2.00
2018-12-10T14:02:30.372Z,1.97
2018-12-10T14:05:03.553Z,2.30
2018-12-10T14:07:32.260Z,2.30
2018-12-10T14:10:00.720Z,2.20
2018-12-10T14:12:29.896Z,2.27
2018-12-10T14:14:58.448Z,2.07
2018-12-10T14:17:28.431Z,2.20
2018-12-10T14:19:57.079Z,1.87
2018-12-10T14:22:25.544Z,1.77
2018-12-10T14:24:54.289Z,1.57
2018-12-10T14:27:23.773Z,1.80
2018-12-10T14:29:53.004Z,1.57
2018-12-10T14:32:21.554Z,1.60
2018-12-10T14:34:50.100Z,1.40
2018-12-10T14:37:18.705Z,1.90
2018-12-10T14:39:47.350Z,1.73
2018-12-10T14:42:24.333Z,1.80
2018-12-10T14:44:53.067Z,1.60
2018-12-10T14:47:21.660Z,1.60
2018-12-10T14:49:50.090Z,1.60
2018-12-10T14:52:18.582Z,1.93
2018-12-10T14:54:47.089Z,1.60
2018-12-10T14:57:15.630Z,1.40
2018-12-10T14:59:44.096Z,1.40
2018-12-10T15:02:12.572Z,1.40
2018-12-10T15:04:41.019Z,1.60
2018-12-10T15:07:09.745Z,1.50
2018-12-10T15:09:38.205Z,1.40
2018-12-10T15:12:07.833Z,1.43
2018-12-10T15:14:36.309Z,1.37
2018-12-10T15:17:05.055Z,1.10
2018-12-10T15:19:33.627Z,1.40
2018-12-10T15:22:02.575Z,1.33
2018-12-10T15:24:31.069Z,1.40
2018-12-10T15:26:59.560Z,1.80
2018-12-10T15:29:28.040Z,1.60
2018-12-10T15:32:04.892Z,1.60
2018-12-10T15:34:35.142Z,1.50
2018-12-10T15:37:03.649Z,1.43
2018-12-10T15:39:32.278Z,1.10
2018-12-10T15:42:01.251Z,1.30
2018-12-10T15:44:30.073Z,1.13
2018-12-10T15:46:58.571Z,1.30
2018-12-10T15:49:27.048Z,1.40
2018-12-10T15:51:55.508Z,1.63
2018-12-10T15:54:25.784Z,1.70
2018-12-10T15:56:54.462Z,1.50
2018-12-10T15:59:22.966Z,1.50
2018-12-10T16:01:51.436Z,1.47
2018-12-10T16:04:19.900Z,1.80
2018-12-10T16:06:50.695Z,1.50
2018-12-10T16:09:19.281Z,1.40
2018-12-10T16:11:47.828Z,1.20
2018-12-10T16:14:19.702Z,1.30
2018-12-10T16:16:49.561Z,1.50
2018-12-10T16:19:27.576Z,1.50
2018-12-10T16:21:57.505Z,1.70
2018-12-10T16:24:36.027Z,1.67
2018-12-10T16:27:16.509Z,1.60
2018-12-10T16:29:45.597Z,1.53
2018-12-10T16:32:20.189Z,1.60
2018-12-10T16:34:51.672Z,1.60
2018-12-10T16:37:21.015Z,1.57
2018-12-10T16:39:51.241Z,1.50
2018-12-10T16:42:19.774Z,1.57
2018-12-10T16:44:53.150Z,1.47
2018-12-10T16:47:21.793Z,1.57
2018-12-10T16:49:51.484Z,1.60
2018-12-10T16:52:21.044Z,1.40
2018-12-10T16:54:51.488Z,1.57
2018-12-10T16:57:22.128Z,1.80
2018-12-10T16:59:53.545Z,2.20
2018-12-10T17:02:23.064Z,3.17
2018-12-10T17:05:02.974Z,2.70
2018-12-10T17:07:31.761Z,2.10
2018-12-10T17:10:00.241Z,2.53
2018-12-10T17:12:31.001Z,1.80
2018-12-10T17:15:00.768Z,1.87
2018-12-10T17:17:31.329Z,1.80
2018-12-10T17:20:00.025Z,1.70
2018-12-10T17:22:33.698Z,1.90
2018-12-10T17:25:04.123Z,1.90
2018-12-10T17:27:32.907Z,2.10
2018-12-10T17:30:01.729Z,2.10
2018-12-10T17:32:30.254Z,1.87
2018-12-10T17:34:58.869Z,2.10
2018-12-10T17:37:27.474Z,2.40
2018-12-10T17:39:56.231Z,2.60
2018-12-10T17:42:25.256Z,2.10
2018-12-10T17:44:53.715Z,2.10
2018-12-10T17:47:22.785Z,1.90
2018-12-10T17:49:54.673Z,1.80
2018-12-10T17:52:24.978Z,1.90
2018-12-10T17:54:58.663Z,2.10
2018-12-10T17:57:32.577Z,1.70
2018-12-10T18:00:13.567Z,1.80
2018-12-10T18:02:56.744Z,1.80
2018-12-10T18:05:27.846Z,2.00
2018-12-10T18:07:59.191Z,1.80
2018-12-10T18:10:28.446Z,1.63
2018-12-10T18:12:56.951Z,1.80
2018-12-10T18:15:25.485Z,2.20
2018-12-10T18:17:54.278Z,3.30
2018-12-10T18:20:23.527Z,4.00
2018-12-10T18:22:54.712Z,3.87
2018-12-10T18:25:23.310Z,2.90
2018-12-10T18:27:51.834Z,2.53
2018-12-10T18:30:23.475Z,2.10
2018-12-10T18:32:53.483Z,2.10
2018-12-10T18:35:27.673Z,2.30
2018-12-10T18:37:58.125Z,2.07
2018-12-10T18:40:28.817Z,2.30
2018-12-10T18:42:57.625Z,1.90
2018-12-10T18:45:26.865Z,2.03
2018-12-10T18:47:55.944Z,2.00
2018-12-10T18:50:24.466Z,1.90
2018-12-10T18:52:53.016Z,2.00
2018-12-10T18:55:21.520Z,1.87
2018-12-10T18:57:50.194Z,1.73
2018-12-10T19:00:18.941Z,1.93
2018-12-10T19:02:47.964Z,1.97
2018-12-10T19:05:16.465Z,2.57
2018-12-10T19:07:44.984Z,2.73
2018-12-10T19:10:14.924Z,2.63
2018-12-10T19:12:44.495Z,3.30
2018-12-10T19:15:13.595Z,3.30
2018-12-10T19:17:42.115Z,3.30
2018-12-10T19:20:13.713Z,2.70
2018-12-10T19:22:41.997Z,2.60
2018-12-10T19:25:10.435Z,2.70
2018-12-10T19:27:43.405Z,2.80
2018-12-10T19:30:11.868Z,2.70
2018-12-10T19:32:40.334Z,2.87
2018-12-10T19:35:09.174Z,2.67
2018-12-10T19:37:37.669Z,2.53
2018-12-10T19:40:07.608Z,2.20
2018-12-10T19:42:36.101Z,2.47
2018-12-10T19:45:05.556Z,2.57
2018-12-10T19:47:34.025Z,1.93
2018-12-10T19:50:02.526Z,2.23
2018-12-10T19:52:31.239Z,2.10
2018-12-10T19:54:59.667Z,2.20
2018-12-10T19:57:28.130Z,2.07
2018-12-10T19:59:57.094Z,2.07
2018-12-10T20:02:25.873Z,1.70
2018-12-10T20:04:54.362Z,1.90
2018-12-10T20:07:22.956Z,2.33
2018-12-10T20:09:51.984Z,2.27
2018-12-10T20:12:20.710Z,1.90
2018-12-10T20:14:50.030Z,2.53
2018-12-10T20:17:18.803Z,2.70
2018-12-10T20:19:47.412Z,2.50
2018-12-10T20:22:15.872Z,2.40
2018-12-10T20:24:44.475Z,2.73
2018-12-10T20:27:13.545Z,2.70
2018-12-10T20:29:42.234Z,2.47
2018-12-10T20:32:10.861Z,2.13
2018-12-10T20:34:39.384Z,2.33
2018-12-10T20:37:08.218Z,2.47
2018-12-10T20:39:36.948Z,2.20
2018-12-10T20:42:07.016Z,2.80
2018-12-10T20:44:35.498Z,2.50
2018-12-10T20:47:04.202Z,2.33
2018-12-10T20:49:32.704Z,2.70
2018-12-10T20:52:01.289Z,2.73
2018-12-10T20:54:29.888Z,2.73
2018-12-10T20:56:58.437Z,2.63
2018-12-10T20:59:27.397Z,2.50
2018-12-10T21:01:55.928Z,2.80
2018-12-10T21:04:24.377Z,3.00
2018-12-10T21:06:52.874Z,3.53
2018-12-10T21:09:21.698Z,3.93
2018-12-10T21:11:50.231Z,3.80
2018-12-10T21:14:18.711Z,3.70
2018-12-10T21:16:47.251Z,3.60
2018-12-10T21:19:16.711Z,3.60
2018-12-10T21:21:45.924Z,4.17
2018-12-10T21:24:14.933Z,3.97
2018-12-10T21:26:43.556Z,4.30
2018-12-10T21:29:12.546Z,4.47
2018-12-10T21:31:41.034Z,4.40
2018-12-10T21:34:09.519Z,4.53
2018-12-10T21:36:38.019Z,4.20
2018-12-10T21:39:07.744Z,3.50
2018-12-10T21:41:36.355Z,3.20
2018-12-10T21:44:05.235Z,3.17
2018-12-10T21:46:33.674Z,2.90
2018-12-10T21:49:02.127Z,3.53
2018-12-10T21:57:41.656Z,3.10
2018-12-10T22:00:14.196Z,3.20
2018-12-10T22:02:48.621Z,3.50
2018-12-10T22:05:22.673Z,3.20
2018-12-10T22:07:55.242Z,2.63
2018-12-10T22:10:29.870Z,3.03
2018-12-10T22:13:04.723Z,3.23
2018-12-10T22:15:38.775Z,2.93
2018-12-10T22:18:13.842Z,3.50
2018-12-10T22:20:48.855Z,13.07
2018-12-10T22:23:23.750Z,19.53
2018-12-10T22:25:57.786Z,6.33
2018-12-10T22:28:31.854Z,5.40
2018-12-10T22:31:03.659Z,4.50
2018-12-10T22:33:35.892Z,4.43
2018-12-10T22:36:10.305Z,3.97
2018-12-10T22:38:42.062Z,4.10
2018-12-10T22:41:14.256Z,3.97
2018-12-10T22:52:56.909Z,3.43
2018-12-10T22:55:29.212Z,3.53
2018-12-10T22:58:03.475Z,3.57
2018-12-10T23:00:42.495Z,3.30
2018-12-10T23:03:16.455Z,3.17
2018-12-10T23:05:48.168Z,3.40
2018-12-10T23:08:22.561Z,3.37
2018-12-10T23:10:56.515Z,3.27
2018-12-10T23:13:28.156Z,3.03
2018-12-10T23:16:02.622Z,3.03
2018-12-10T23:18:36.803Z,2.70
2018-12-10T23:21:09.283Z,3.07
2018-12-10T23:23:43.833Z,3.20
2018-12-10T23:26:18.735Z,2.70
2018-12-10T23:28:50.366Z,2.90
2018-12-10T23:31:24.805Z,2.70
2018-12-10T23:33:58.839Z,2.80
2018-12-10T23:36:32.798Z,2.47
2018-12-10T23:39:06.820Z,3.30
2018-12-10T23:41:40.864Z,2.50
2018-12-10T23:44:29.274Z,2.50
2018-12-10T23:47:03.236Z,2.53
2018-12-10T23:49:37.620Z,2.63
2018-12-10T23:52:11.810Z,2.67
2018-12-10T23:54:46.638Z,2.67
2018-12-10T23:57:19.145Z,2.73
2018-12-10T23:59:53.476Z,3.13
